Time;durP1;ratioP1;P1;durP2;ratioP2;P2;SDS_P1;SDS_P2;PMS_P1;PMS_P2;Temp;Humidity;BMP_temperature;BMP_pressure;BME280_temperature;BME280_humidity;BME280_pressure;Samples;Min_cycle;Max_cycle;Signal;HPM_P1;HPM_P2
2023/04/25 00:00:52;;;;;;;11.25;5.93;;;;;;;15.29;100.00;101014.78;2078384;28;20053;-72
2023/04/25 00:02:13;;;;;;;11.57;6.18;;;;;;;15.29;100.00;101004.13;2071306;28;20053;-72
2023/04/25 00:03:38;;;;;;;11.55;6.82;;;;;;;15.30;100.00;101008.53;2067315;28;20041;-71
2023/04/25 00:05:01;;;;;;;11.57;6.50;;;;;;;15.32;100.00;101006.78;2060052;28;20047;-72
2023/04/25 00:06:26;;;;;;;11.65;6.40;;;;;;;15.34;100.00;101000.59;2069357;28;20794;-72
2023/04/25 00:07:49;;;;;;;8.57;6.05;;;;;;;15.34;100.00;101011.22;2070140;28;20054;-72
2023/04/25 00:09:11;;;;;;;9.02;5.85;;;;;;;15.34;100.00;101013.88;2078078;28;20052;-72
2023/04/25 00:10:33;;;;;;;11.98;6.47;;;;;;;15.33;100.00;101011.22;2065435;28;20038;-72
2023/04/25 00:11:57;;;;;;;13.63;6.65;;;;;;;15.31;100.00;101013.88;2067365;28;20057;-72
2023/04/25 00:13:19;;;;;;;11.18;6.32;;;;;;;15.29;100.00;101012.13;2075753;28;20050;-72
2023/04/25 00:14:41;;;;;;;11.48;6.78;;;;;;;15.26;100.00;101012.09;2084824;28;20068;-72
2023/04/25 00:16:04;;;;;;;10.55;6.45;;;;;;;15.25;100.00;101008.56;2068583;28;20160;-72
2023/04/25 00:17:27;;;;;;;14.45;6.03;;;;;;;15.26;100.00;101012.09;2074660;28;20525;-72
2023/04/25 00:18:51;;;;;;;13.05;7.03;;;;;;;15.25;100.00;101005.88;2076556;28;20045;-73
2023/04/25 00:20:15;;;;;;;11.20;6.47;;;;;;;15.25;100.00;101008.56;2072297;28;20050;-72
2023/04/25 00:21:41;;;;;;;12.70;6.35;;;;;;;15.25;100.00;101012.97;2077155;28;20045;-72
2023/04/25 00:23:04;;;;;;;14.23;7.22;;;;;;;15.25;100.00;101013.88;2077065;28;20529;-72
2023/04/25 00:24:27;;;;;;;16.95;6.22;;;;;;;15.28;100.00;101016.53;2081638;28;20127;-72
2023/04/25 00:25:51;;;;;;;12.15;6.63;;;;;;;15.31;100.00;101023.63;2085985;28;20098;-73
2023/04/25 00:27:13;;;;;;;15.02;7.15;;;;;;;15.30;100.00;101016.53;2069626;28;20481;-72
2023/04/25 00:28:36;;;;;;;13.40;6.90;;;;;;;15.28;100.00;101024.53;2083525;28;20132;-72
2023/04/25 00:29:57;;;;;;;17.73;7.53;;;;;;;15.29;100.00;101020.97;2080343;28;20051;-72
2023/04/25 00:31:20;;;;;;;14.30;6.65;;;;;;;15.31;100.00;101020.97;2069518;28;20140;-72
2023/04/25 00:32:42;;;;;;;14.65;7.25;;;;;;;15.33;100.00;101027.19;2059012;28;20542;-72
2023/04/25 00:34:05;;;;;;;11.23;6.63;;;;;;;15.34;100.00;101028.97;2074739;28;20053;-72
2023/04/25 00:35:28;;;;;;;12.18;6.93;;;;;;;15.35;100.00;101023.66;2076303;28;20136;-72
2023/04/25 00:36:51;;;;;;;10.45;6.93;;;;;;;15.36;100.00;101024.53;2072258;28;20414;-72
2023/04/25 00:38:14;;;;;;;14.18;6.85;;;;;;;15.34;100.00;101020.97;2077784;28;20137;-72
2023/04/25 00:39:37;;;;;;;10.85;7.10;;;;;;;15.32;100.00;101028.06;2063558;28;20145;-72
2023/04/25 00:40:59;;;;;;;13.90;7.22;;;;;;;15.32;100.00;101028.06;2071017;28;20137;-72
2023/04/25 00:42:22;;;;;;;13.27;7.00;;;;;;;15.31;100.00;101024.50;2077691;28;20053;-71
2023/04/25 00:43:47;;;;;;;11.30;7.10;;;;;;;15.31;100.00;101018.28;2069613;28;20049;-72
2023/04/25 00:45:14;;;;;;;12.40;7.60;;;;;;;15.31;100.00;101026.28;2073748;28;20045;-72
2023/04/25 00:46:36;;;;;;;13.45;7.15;;;;;;;15.29;100.00;101018.31;2067921;28;20054;-72
2023/04/25 00:47:59;;;;;;;15.85;7.40;;;;;;;15.29;100.00;101014.78;2075132;28;20409;-71
2023/04/25 00:49:21;;;;;;;12.75;7.50;;;;;;;15.27;100.00;101016.53;2072029;28;20501;-71
2023/04/25 00:50:49;;;;;;;11.63;7.45;;;;;;;15.27;100.00;101016.53;2073933;28;20113;-73
2023/04/25 00:52:14;;;;;;;13.50;7.95;;;;;;;15.27;100.00;101013.88;2070345;28;20125;-72
2023/04/25 00:53:36;;;;;;;14.48;7.05;;;;;;;15.27;100.00;101019.19;2069374;28;20046;-73
2023/04/25 00:54:59;;;;;;;12.63;6.70;;;;;;;15.28;100.00;101018.31;2080019;28;20528;-72
2023/04/25 00:56:40;;;;;;;15.05;7.55;;;;;;;15.27;100.00;101008.56;2072593;28;20073;-72
2023/04/25 00:58:03;;;;;;;11.57;7.55;;;;;;;15.25;100.00;101013.88;2071220;28;20038;-72
2023/04/25 00:59:27;;;;;;;12.15;7.63;;;;;;;15.26;100.00;101012.09;2075045;28;20111;-72
2023/04/25 01:00:51;;;;;;;12.63;7.28;;;;;;;15.27;100.00;101011.22;2075865;28;20122;-72
2023/04/25 01:02:14;;;;;;;12.27;7.82;;;;;;;15.26;100.00;101015.66;2069755;28;20058;-72
2023/04/25 01:03:41;;;;;;;11.38;7.03;;;;;;;15.26;100.00;101009.44;2068277;28;20080;-72
2023/04/25 01:05:04;;;;;;;15.38;8.10;;;;;;;15.24;100.00;101008.53;2069819;28;20054;-72
2023/04/25 01:06:27;;;;;;;11.50;7.85;;;;;;;15.21;100.00;101008.56;2069639;28;20041;-72
2023/04/25 01:07:52;;;;;;;16.98;8.32;;;;;;;15.19;100.00;101002.34;2061180;28;20046;-72
2023/04/25 01:09:14;;;;;;;15.38;7.70;;;;;;;15.16;100.00;101008.56;2066893;28;20042;-72
2023/04/25 01:10:36;;;;;;;13.38;7.65;;;;;;;15.13;100.00;101009.44;2066412;28;20583;-72
2023/04/25 01:11:59;;;;;;;14.93;7.20;;;;;;;15.11;100.00;100999.66;2075051;28;20045;-72
2023/04/25 01:13:21;;;;;;;13.35;7.13;;;;;;;15.09;100.00;101002.34;2073926;28;20136;-72
2023/04/25 01:14:43;;;;;;;13.68;7.10;;;;;;;15.08;100.00;100997.03;2074405;28;20044;-72
2023/04/25 01:16:05;;;;;;;13.18;7.85;;;;;;;15.06;100.00;101001.44;2076023;28;20124;-72
2023/04/25 01:17:28;;;;;;;13.98;7.40;;;;;;;15.03;100.00;100996.13;2068376;28;20046;-72
2023/04/25 01:18:52;;;;;;;13.80;7.68;;;;;;;15.02;100.00;100997.91;2069721;28;20564;-72
2023/04/25 01:20:14;;;;;;;12.57;7.55;;;;;;;15.02;100.00;101007.66;2068041;28;20041;-72
2023/04/25 01:21:38;;;;;;;12.20;7.38;;;;;;;15.01;100.00;101000.56;2062044;28;20101;-72
2023/04/25 01:23:02;;;;;;;13.18;7.28;;;;;;;14.99;100.00;101003.22;2058853;28;20194;-72
2023/04/25 01:24:23;;;;;;;10.98;7.55;;;;;;;14.96;100.00;101003.22;2067390;28;20041;-72
2023/04/25 01:25:47;;;;;;;15.35;8.18;;;;;;;14.94;100.00;101004.09;2066534;28;20052;-72
2023/04/25 01:27:09;;;;;;;12.13;7.47;;;;;;;14.91;100.00;100999.66;2083588;28;20049;-71
2023/04/25 01:28:32;;;;;;;11.57;7.30;;;;;;;14.90;100.00;101012.97;2079844;28;20073;-72
2023/04/25 01:29:55;;;;;;;9.88;6.03;;;;;;;14.84;100.00;101003.16;2071760;28;20057;-72
2023/04/25 01:31:19;;;;;;;9.23;6.13;;;;;;;14.68;100.00;100994.28;2068080;28;20069;-72
2023/04/25 01:32:42;;;;;;;7.90;4.90;;;;;;;14.51;100.00;100992.44;2067226;28;20049;-72
2023/04/25 01:34:04;;;;;;;7.43;5.28;;;;;;;14.36;100.00;100991.50;2078695;28;20087;-72
2023/04/25 01:35:27;;;;;;;7.40;5.05;;;;;;;14.24;100.00;100985.25;2076645;28;20049;-72
2023/04/25 01:36:53;;;;;;;9.95;5.60;;;;;;;14.12;100.00;100985.19;2072789;28;20052;-72
2023/04/25 01:38:15;;;;;;;10.95;5.53;;;;;;;13.97;100.00;100975.41;2067054;28;20056;-72
2023/04/25 01:39:38;;;;;;;9.45;5.60;;;;;;;13.88;100.00;100980.66;2071390;28;20526;-71
2023/04/25 01:41:00;;;;;;;9.48;5.65;;;;;;;13.86;100.00;100980.63;2068516;28;20095;-72
2023/04/25 01:42:24;;;;;;;10.60;5.90;;;;;;;13.86;100.00;100975.31;2066439;28;20045;-73
2023/04/25 01:43:46;;;;;;;9.88;4.57;;;;;;;13.78;100.00;100977.06;2066924;28;20057;-73
2023/04/25 01:45:10;;;;;;;9.32;5.15;;;;;;;13.67;100.00;100969.91;2082582;28;20056;-73
2023/04/25 01:46:34;;;;;;;7.30;4.47;;;;;;;13.58;100.00;100970.75;2077638;28;20048;-72
2023/04/25 01:47:59;;;;;;;8.98;5.30;;;;;;;13.48;100.00;100968.91;2085822;28;20098;-73
2023/04/25 01:49:21;;;;;;;8.63;5.05;;;;;;;13.39;100.00;100971.50;2076914;28;20167;-73
2023/04/25 01:50:45;;;;;;;7.10;4.50;;;;;;;13.29;100.00;100962.56;2077151;28;20532;-73
2023/04/25 01:52:09;;;;;;;8.70;5.20;;;;;;;13.20;100.00;100973.09;2070501;28;20308;-74
2023/04/25 01:53:32;;;;;;;6.93;4.80;;;;;;;13.11;100.00;100965.06;2074861;28;20724;-74
2023/04/25 01:54:56;;;;;;;8.30;5.38;;;;;;;13.05;100.00;100967.66;2072566;28;20108;-72
2023/04/25 01:56:20;;;;;;;8.35;5.05;;;;;;;13.01;100.00;100963.19;2066696;28;20091;-72
2023/04/25 01:57:42;;;;;;;8.27;5.00;;;;;;;13.01;100.00;100965.81;2066645;28;20076;-73
2023/04/25 01:59:04;;;;;;;8.82;5.25;;;;;;;13.01;100.00;100968.47;2066151;28;20042;-73
2023/04/25 02:00:41;;;;;;;8.63;5.63;;;;;;;12.99;100.00;100963.19;2083020;28;20053;-73
2023/04/25 02:02:03;;;;;;;8.27;5.03;;;;;;;12.98;100.00;100965.81;2071489;28;20054;-73
2023/04/25 02:03:27;;;;;;;9.02;5.45;;;;;;;12.92;100.00;100966.66;2074416;28;20049;-73
2023/04/25 02:04:51;;;;;;;5.50;4.32;;;;;;;12.89;100.00;100971.03;2069357;28;20570;-73
2023/04/25 02:06:12;;;;;;;9.02;5.85;;;;;;;12.87;100.00;100963.03;2077273;28;20077;-72
2023/04/25 02:07:40;;;;;;;7.55;5.10;;;;;;;12.87;100.00;100964.81;2069339;28;20097;-73
2023/04/25 02:09:01;;;;;;;9.63;5.60;;;;;;;12.89;100.00;100965.72;2065343;28;20077;-72
2023/04/25 02:10:24;;;;;;;7.47;4.95;;;;;;;12.95;100.00;100960.47;2066423;28;22349;-73
2023/04/25 02:11:57;;;;;;;9.65;5.70;;;;;;;12.95;100.00;100965.78;2069218;28;20046;-73
2023/04/25 02:13:58;;;;;;;8.48;5.43;;;;;;;12.98;100.00;100957.88;2079334;28;20053;-73
2023/04/25 02:15:36;;;;;;;9.75;5.43;;;;;;;13.04;100.00;100960.56;2070157;28;20077;-73
2023/04/25 02:17:09;;;;;;;9.48;5.30;;;;;;;13.11;100.00;100959.75;2069580;28;20136;-73
2023/04/25 02:18:32;;;;;;;9.13;4.90;;;;;;;13.12;100.00;100961.53;2066216;28;20072;-73
2023/04/25 02:19:55;;;;;;;11.15;5.15;;;;;;;13.15;100.00;100956.28;2060779;28;20077;-72
2023/04/25 02:21:19;;;;;;;8.68;4.97;;;;;;;13.20;100.00;100964.25;2071487;28;20383;-72
2023/04/25 02:22:44;;;;;;;8.57;5.18;;;;;;;13.27;100.00;100960.78;2067163;28;20058;-73
2023/04/25 02:24:07;;;;;;;6.78;4.30;;;;;;;13.30;100.00;100963.47;2060811;28;20050;-72
2023/04/25 02:25:30;;;;;;;7.68;5.18;;;;;;;13.29;100.00;100969.63;2069268;28;20410;-72
2023/04/25 02:26:52;;;;;;;7.07;5.00;;;;;;;13.25;100.00;100965.19;2061037;28;20046;-73
2023/04/25 02:28:15;;;;;;;7.85;4.60;;;;;;;13.21;100.00;100966.91;2066244;28;20034;-72
2023/04/25 02:29:36;;;;;;;9.25;5.07;;;;;;;13.23;100.00;100967.84;2071795;28;20143;-72
2023/04/25 02:30:58;;;;;;;7.95;5.30;;;;;;;13.28;100.00;100970.50;2071343;28;20100;-73
2023/04/25 02:32:20;;;;;;;7.97;5.18;;;;;;;13.30;100.00;100964.34;2071599;28;20049;-72
2023/04/25 02:33:43;;;;;;;8.60;5.38;;;;;;;13.33;100.00;100968.78;2063546;28;20502;-72
2023/04/25 02:35:07;;;;;;;7.57;5.03;;;;;;;13.39;100.00;100963.53;2058451;28;20046;-72
2023/04/25 02:36:32;;;;;;;7.97;4.93;;;;;;;13.44;100.00;100967.09;2062323;28;20038;-72
2023/04/25 02:37:55;;;;;;;8.85;4.80;;;;;;;13.44;100.00;100964.47;2074049;28;20049;-71
2023/04/25 02:39:17;;;;;;;10.20;4.93;;;;;;;13.39;100.00;100964.41;2067973;28;20394;-72
2023/04/25 02:40:40;;;;;;;8.27;5.18;;;;;;;13.37;100.00;100965.28;2066508;28;20046;-72
2023/04/25 02:42:02;;;;;;;9.65;5.18;;;;;;;13.35;100.00;100967.91;2066605;28;20054;-72
2023/04/25 02:43:25;;;;;;;7.40;5.03;;;;;;;13.35;100.00;100965.28;2067355;28;20264;-71
2023/04/25 02:44:48;;;;;;;8.68;5.70;;;;;;;13.37;100.00;100966.19;2078782;28;20378;-72
2023/04/25 02:46:10;;;;;;;10.25;5.13;;;;;;;13.43;100.00;100967.97;2074005;28;20082;-72
2023/04/25 02:47:32;;;;;;;8.05;5.15;;;;;;;13.49;100.00;100968.03;2083814;28;20041;-72
2023/04/25 02:48:54;;;;;;;9.45;5.22;;;;;;;13.52;100.00;100971.56;2075804;28;20053;-72
2023/04/25 02:50:15;;;;;;;7.80;4.93;;;;;;;13.53;100.00;100968.03;2063056;28;20050;-72
2023/04/25 02:51:38;;;;;;;8.80;4.75;;;;;;;13.44;100.00;100970.66;2067405;28;20072;-72
2023/04/25 02:53:02;;;;;;;8.90;5.10;;;;;;;13.39;100.00;100976.81;2068609;28;20046;-71
2023/04/25 02:54:32;;;;;;;8.85;5.40;;;;;;;13.38;100.00;100967.97;2069128;28;20034;-72
2023/04/25 02:55:54;;;;;;;8.82;5.28;;;;;;;13.34;100.00;100976.75;2076100;28;20503;-72
2023/04/25 02:57:16;;;;;;;7.45;5.00;;;;;;;13.23;100.00;100978.44;2067352;28;20045;-72
2023/04/25 02:58:37;;;;;;;7.10;5.00;;;;;;;13.20;100.00;100972.19;2075134;28;20147;-72
2023/04/25 03:00:00;;;;;;;10.63;4.93;;;;;;;13.21;100.00;100974.88;2072218;28;20046;-72
2023/04/25 03:01:21;;;;;;;10.88;5.15;;;;;;;13.24;100.00;100974.91;2067691;28;20056;-71
2023/04/25 03:02:44;;;;;;;8.55;5.10;;;;;;;13.27;100.00;100979.34;2067855;28;20093;-72
2023/04/25 03:04:06;;;;;;;9.23;5.32;;;;;;;13.29;100.00;100977.59;2075081;28;20042;-72
2023/04/25 03:05:29;;;;;;;6.82;4.65;;;;;;;13.31;100.00;100981.16;2070083;28;20637;-72
2023/04/25 03:06:52;;;;;;;7.53;4.70;;;;;;;13.31;100.00;100974.09;2083911;28;20366;-71
2023/04/25 03:08:18;;;;;;;7.25;4.70;;;;;;;13.28;100.00;100981.13;2071802;28;20045;-72
2023/04/25 03:09:40;;;;;;;9.18;4.93;;;;;;;13.13;100.00;100971.25;2070501;28;20089;-72
2023/04/25 03:11:03;;;;;;;7.57;4.70;;;;;;;13.01;100.00;100973.78;2066345;28;20053;-72
2023/04/25 03:12:25;;;;;;;7.10;4.60;;;;;;;12.97;100.00;100982.59;2060783;28;20502;-72
2023/04/25 03:13:48;;;;;;;6.78;4.80;;;;;;;12.97;100.00;100974.63;2062009;28;20062;-72
2023/04/25 03:15:11;;;;;;;6.85;5.10;;;;;;;13.01;100.00;100968.47;2067277;28;20502;-71
2023/04/25 03:16:32;;;;;;;8.50;5.00;;;;;;;13.06;100.00;100972.09;2062148;28;20065;-72
2023/04/25 03:17:54;;;;;;;7.47;4.93;;;;;;;13.09;100.00;100966.78;2066850;28;20072;-72
2023/04/25 03:19:16;;;;;;;7.80;5.13;;;;;;;13.12;100.00;100970.41;2076407;28;20042;-72
2023/04/25 03:20:40;;;;;;;7.35;4.82;;;;;;;13.15;100.00;100974.81;2073247;28;20080;-72
2023/04/25 03:22:03;;;;;;;9.30;5.40;;;;;;;13.15;100.00;100972.19;2070172;28;20058;-72
2023/04/25 03:23:26;;;;;;;9.23;5.03;;;;;;;13.12;100.00;100973.06;2072098;28;20042;-72
2023/04/25 03:24:49;;;;;;;6.88;4.28;;;;;;;13.08;100.00;100975.59;2069955;28;20391;-71
2023/04/25 03:26:11;;;;;;;7.97;4.70;;;;;;;13.05;100.00;100968.53;2072871;28;20498;-72
2023/04/25 03:27:33;;;;;;;6.25;4.78;;;;;;;13.04;100.00;100973.81;2061150;28;20137;-71
2023/04/25 03:28:55;;;;;;;7.30;4.47;;;;;;;13.04;100.00;100965.88;2059221;28;20046;-72
2023/04/25 03:30:18;;;;;;;7.15;4.75;;;;;;;13.06;100.00;100967.63;2059563;28;20108;-72
2023/04/25 03:31:41;;;;;;;9.18;4.70;;;;;;;13.08;100.00;100970.31;2067520;28;20533;-72
2023/04/25 03:33:04;;;;;;;7.53;4.13;;;;;;;13.08;100.00;100965.00;2067085;28;20050;-71
2023/04/25 03:34:27;;;;;;;7.80;4.85;;;;;;;13.09;100.00;100966.78;2069876;28;20107;-72
2023/04/25 03:35:51;;;;;;;8.85;4.60;;;;;;;13.08;100.00;100965.00;2067358;28;20054;-71
2023/04/25 03:37:14;;;;;;;8.63;5.15;;;;;;;13.07;100.00;100971.19;2071762;28;20049;-72
2023/04/25 03:38:37;;;;;;;9.07;5.22;;;;;;;13.03;100.00;100961.44;2067643;28;20042;-72
2023/04/25 03:40:00;;;;;;;6.85;4.93;;;;;;;12.96;100.00;100964.91;2064434;28;20054;-71
2023/04/25 03:41:37;;;;;;;10.45;5.38;;;;;;;12.89;100.00;100965.72;2070972;28;20061;-72
2023/04/25 03:43:03;;;;;;;7.88;5.05;;;;;;;12.87;100.00;100963.03;2069208;28;20085;-71
2023/04/25 03:44:26;;;;;;;7.47;5.28;;;;;;;12.89;100.00;100965.72;2067214;28;20042;-72
2023/04/25 03:45:47;;;;;;;6.45;4.70;;;;;;;12.88;100.00;100966.59;2071976;28;20477;-73
2023/04/25 03:47:11;;;;;;;7.43;4.25;;;;;;;12.87;100.00;100973.66;2072883;28;20493;-72
2023/04/25 03:48:32;;;;;;;8.90;4.47;;;;;;;12.91;100.00;100974.59;2075117;28;20037;-72
2023/04/25 03:49:54;;;;;;;5.32;4.50;;;;;;;12.95;100.00;100973.72;2069704;28;20450;-72
2023/04/25 03:51:18;;;;;;;9.77;4.75;;;;;;;13.02;100.00;100970.25;2067806;28;20046;-72
2023/04/25 03:52:41;;;;;;;7.18;4.43;;;;;;;13.09;100.00;100972.09;2066971;28;20053;-72
2023/04/25 03:54:07;;;;;;;6.13;4.28;;;;;;;13.16;100.00;100977.50;2067399;28;20069;-72
2023/04/25 03:55:30;;;;;;;5.80;3.90;;;;;;;13.23;100.00;100973.13;2073666;28;20103;-71
2023/04/25 03:56:53;;;;;;;6.32;3.65;;;;;;;13.30;100.00;100977.63;2077716;28;20053;-73
2023/04/25 03:58:17;;;;;;;5.75;3.70;;;;;;;13.38;100.00;100977.69;2075872;28;20092;-73
2023/04/25 03:59:40;;;;;;;6.63;4.03;;;;;;;13.47;100.00;100981.25;2072834;28;20041;-73
2023/04/25 04:01:07;;;;;;;6.95;3.85;;;;;;;13.53;100.00;100970.69;2077770;28;20049;-73
2023/04/25 04:02:30;;;;;;;6.45;4.28;;;;;;;13.61;100.00;100977.81;2076302;28;20104;-73
2023/04/25 04:03:53;;;;;;;6.18;4.28;;;;;;;13.69;100.00;100978.75;2085868;28;20056;-71
2023/04/25 04:05:16;;;;;;;5.95;4.20;;;;;;;13.77;100.00;100985.00;2077141;28;20048;-72
2023/04/25 04:06:45;;;;;;;6.65;3.80;;;;;;;13.84;100.00;100982.41;2062636;28;20124;-72
2023/04/25 04:08:12;;;;;;;8.77;4.00;;;;;;;13.93;100.00;100986.84;2065211;28;20447;-72
2023/04/25 04:09:37;;;;;;;5.82;3.97;;;;;;;14.01;100.00;100989.56;2069476;28;20131;-72
2023/04/25 04:11:04;;;;;;;6.88;4.13;;;;;;;14.07;100.00;100995.78;2060249;28;20050;-71
2023/04/25 04:12:27;;;;;;;6.65;4.25;;;;;;;14.12;100.00;100996.69;2064859;28;20053;-72
2023/04/25 04:13:49;;;;;;;6.63;3.85;;;;;;;14.11;100.00;100997.56;2067382;28;20108;-71
2023/04/25 04:15:12;;;;;;;5.47;3.88;;;;;;;14.06;100.00;101004.63;2076695;28;20414;-72
2023/04/25 04:16:35;;;;;;;7.20;4.15;;;;;;;14.05;100.00;101000.19;2068803;28;20402;-72
2023/04/25 04:17:56;;;;;;;5.70;3.38;;;;;;;14.05;100.00;101002.84;2066666;28;20062;-72
2023/04/25 04:19:19;;;;;;;4.90;3.63;;;;;;;14.12;100.00;101007.31;2074969;28;20053;-72
2023/04/25 04:20:48;;;;;;;4.70;3.20;;;;;;;14.24;100.00;101003.84;2071710;28;20042;-71
2023/04/25 04:22:10;;;;;;;5.43;3.88;;;;;;;14.35;100.00;101002.13;2068786;28;20046;-72
2023/04/25 04:23:33;;;;;;;6.25;3.47;;;;;;;14.47;100.00;101001.31;2067000;28;20497;-71
2023/04/25 04:24:56;;;;;;;5.30;3.10;;;;;;;14.58;100.00;100996.91;2069386;28;20041;-71
2023/04/25 04:26:39;;;;;;;4.80;3.42;;;;;;;14.70;100.00;101004.94;2080551;28;20080;-72
2023/04/25 04:28:08;;;;;;;5.22;3.10;;;;;;;14.81;100.00;101005.84;2070526;28;20103;-72
2023/04/25 04:29:36;;;;;;;4.75;2.95;;;;;;;14.93;100.00;101007.63;2068525;28;20057;-72
2023/04/25 04:31:11;;;;;;;6.05;3.00;;;;;;;15.01;100.00;101006.78;2069116;28;20506;-71
2023/04/25 04:32:34;;;;;;;5.53;3.20;;;;;;;15.12;100.00;101006.75;2074300;28;20085;-72
2023/04/25 04:33:57;;;;;;;7.65;3.05;;;;;;;15.24;100.00;101006.78;2076323;28;20061;-72
2023/04/25 04:35:18;;;;;;;5.85;3.15;;;;;;;15.37;100.00;101013.88;2069678;28;20068;-72
2023/04/25 04:36:41;;;;;;;4.93;3.35;;;;;;;15.50;100.00;101014.75;2069742;28;20042;-72
2023/04/25 04:38:04;;;;;;;4.60;2.92;;;;;;;15.61;100.00;101013.03;2066872;28;20061;-72
2023/04/25 04:39:29;;;;;;;5.50;2.90;;;;;;;15.73;100.00;101013.00;2069966;28;20528;-72
2023/04/25 04:41:13;;;;;;;7.90;3.05;;;;;;;15.82;100.00;101012.06;2078702;28;20140;-72
2023/04/25 04:42:46;;;;;;;3.88;2.60;;;;;;;15.92;100.00;101008.53;2082731;28;20068;-72
2023/04/25 04:44:26;;;;;;;7.68;6.88;;;;;;;16.05;100.00;100999.63;2071803;28;20053;-72
2023/04/25 04:46:10;;;;;;;7.93;3.35;;;;;;;16.22;100.00;101008.44;2080255;28;20045;-72
2023/04/25 04:48:01;;;;;;;6.53;3.42;;;;;;;16.42;100.00;101005.69;2071650;28;20604;-72
2023/04/25 04:49:50;;;;;;;5.22;2.85;;;;;;;16.60;100.00;100994.09;2072055;28;20046;-72
2023/04/25 04:51:31;;;;;;;5.35;2.70;;;;;;;16.76;100.00;100997.53;2071718;28;20049;-72
2023/04/25 04:53:05;;;;;;;7.18;2.90;;;;;;;16.91;100.00;100994.78;2070963;28;20038;-72
2023/04/25 04:54:41;;;;;;;7.63;3.33;;;;;;;17.02;100.00;100999.16;2069028;28;20101;-72
2023/04/25 04:56:10;;;;;;;7.50;3.00;;;;;;;17.13;100.00;100994.63;2073706;28;20110;-72
2023/04/25 04:57:54;;;;;;;4.68;2.60;;;;;;;17.31;100.00;100992.72;2070983;28;20050;-72
2023/04/25 04:59:43;;;;;;;8.38;2.97;;;;;;;17.46;100.00;100982.78;2065427;28;20104;-72
2023/04/25 05:01:25;;;;;;;6.53;2.80;;;;;;;17.66;100.00;100993.31;2076234;28;20045;-72
2023/04/25 05:03:06;;;;;;;5.13;2.83;;;;;;;17.80;100.00;100988.72;2079136;28;20147;-73
2023/04/25 05:04:55;;;;;;;6.88;3.10;;;;;;;17.94;100.00;100991.25;2087850;28;20057;-72
2023/04/25 05:06:53;;;;;;;7.90;3.05;;;;;;;18.11;100.00;100986.63;2079749;28;20053;-74
2023/04/25 05:08:35;;;;;;;;;;;;;;;18.20;100.00;100986.47;2050335;28;20419;-72
2023/04/25 05:10:10;;;;;;;6.57;3.10;;;;;;;18.39;100.00;100980.91;2073316;28;20357;-72
2023/04/25 05:11:56;;;;;;;7.95;3.28;;;;;;;18.59;100.00;100984.22;2078242;28;20077;-72
2023/04/25 05:13:35;;;;;;;7.25;3.13;;;;;;;18.80;100.00;100986.63;2063033;28;20129;-72
2023/04/25 05:15:29;;;;;;;7.57;3.03;;;;;;;18.97;100.00;100992.59;2069099;28;20088;-72
2023/04/25 05:17:21;;;;;;;5.90;2.90;;;;;;;19.14;100.00;100989.66;2087721;28;20411;-72
2023/04/25 05:19:01;;;;;;;5.55;2.70;;;;;;;19.30;100.00;100993.84;2078249;28;20061;-72
2023/04/25 05:20:47;;;;;;;6.95;2.85;;;;;;;19.44;100.00;100994.50;2083133;28;20578;-72
2023/04/25 05:22:23;;;;;;;5.97;3.03;;;;;;;19.59;100.00;100997.88;2079813;28;20057;-72
2023/04/25 05:24:06;;;;;;;8.10;2.78;;;;;;;19.73;100.00;100991.34;2078669;28;20053;-73
2023/04/25 05:25:47;;;;;;;5.22;2.92;;;;;;;19.89;100.00;100987.47;2079774;28;20050;-72
2023/04/25 05:27:32;;;;;;;6.90;2.83;;;;;;;20.07;100.00;100999.66;2079782;28;20119;-72
2023/04/25 05:29:18;;;;;;;3.78;2.55;;;;;;;20.21;100.00;100997.59;2071799;28;20600;-72
2023/04/25 05:30:58;;;;;;;7.88;2.85;;;;;;;20.33;100.00;100999.16;2065207;28;20038;-72
2023/04/25 05:32:35;;;;;;;5.32;2.78;;;;;;;20.50;99.56;101001.47;2072796;28;20049;-72
2023/04/25 05:33:58;;;;;;;7.38;3.00;;;;;;;20.65;97.19;100999.34;2071384;28;20077;-72
2023/04/25 05:35:25;;;;;;;7.50;2.80;;;;;;;20.85;96.57;100998.03;2061957;28;20050;-72
2023/04/25 05:36:49;;;;;;;6.85;2.55;;;;;;;21.01;94.68;100999.41;2058626;28;20081;-72
2023/04/25 05:38:12;;;;;;;8.55;3.13;;;;;;;21.12;91.42;101002.75;2067170;28;20398;-72
2023/04/25 05:39:57;;;;;;;7.07;2.75;;;;;;;21.19;89.29;100999.03;2078141;28;20045;-72
2023/04/25 05:41:42;;;;;;;4.50;2.50;;;;;;;21.32;88.06;100997.81;2075217;28;20520;-72
2023/04/25 05:43:23;;;;;;;5.70;2.45;;;;;;;21.44;85.04;100997.50;2086719;28;20571;-72
2023/04/25 05:45:08;;;;;;;7.38;2.72;;;;;;;21.53;81.61;100991.00;2074508;28;20088;-72
2023/04/25 05:47:08;;;;;;;5.65;2.22;;;;;;;21.59;79.21;100996.25;2068956;28;20046;-72
2023/04/25 05:48:50;;;;;;;;;;;;;;;21.66;80.78;100997.81;2069027;28;20049;-73
2023/04/25 05:50:28;;;;;;;3.75;2.40;;;;;;;21.78;75.99;100996.63;2062984;28;19922;-72
2023/04/25 05:51:58;;;;;;;5.25;2.50;;;;;;;21.86;73.06;100986.53;2059441;28;20055;-72
2023/04/25 05:53:39;;;;;;;5.18;2.50;;;;;;;21.98;72.23;100993.44;2085264;28;20424;-73
2023/04/25 05:55:02;;;;;;;8.05;3.15;;;;;;;22.09;73.96;100997.56;2065004;28;20065;-72
2023/04/25 05:56:26;;;;;;;7.28;2.40;;;;;;;22.23;72.78;101000.78;2066370;28;20548;-72
2023/04/25 05:57:49;;;;;;;5.75;2.90;;;;;;;22.34;71.05;101000.44;2071783;28;20540;-72
2023/04/25 05:59:12;;;;;;;5.30;2.40;;;;;;;22.46;71.00;101001.88;2069055;28;20437;-72
2023/04/25 06:00:37;;;;;;;6.13;2.80;;;;;;;22.61;71.55;101006.81;2070723;28;20056;-72
2023/04/25 06:02:00;;;;;;;5.93;2.67;;;;;;;22.78;70.55;101001.84;2062881;28;20086;-72
2023/04/25 06:03:26;;;;;;;6.13;2.38;;;;;;;22.85;69.35;101006.09;2074914;28;20076;-72
2023/04/25 06:04:50;;;;;;;5.75;2.15;;;;;;;22.94;70.14;101000.44;2077153;28;20045;-73
2023/04/25 06:06:13;;;;;;;7.30;2.83;;;;;;;23.09;69.95;101006.28;2077346;28;20046;-72
2023/04/25 06:07:35;;;;;;;4.95;2.40;;;;;;;23.23;66.50;101006.72;2077265;28;20045;-72
2023/04/25 06:08:59;;;;;;;4.68;2.17;;;;;;;23.36;62.30;101005.38;2082957;28;20069;-72
2023/04/25 06:10:21;;;;;;;5.00;2.28;;;;;;;23.40;59.01;101007.03;2074517;28;20083;-72
2023/04/25 06:11:43;;;;;;;5.13;2.38;;;;;;;23.48;59.16;101004.13;2071062;28;20054;-73
2023/04/25 06:13:05;;;;;;;5.25;2.28;;;;;;;23.56;57.50;101005.63;2075358;28;20045;-72
2023/04/25 06:14:30;;;;;;;4.20;1.65;;;;;;;23.66;53.05;100998.97;2085459;28;20076;-73
2023/04/25 06:15:54;;;;;;;5.80;2.80;;;;;;;23.78;50.82;101005.75;2080698;28;20041;-72
2023/04/25 06:17:16;;;;;;;6.20;2.40;;;;;;;23.79;51.58;101005.69;2077161;28;20536;-72
2023/04/25 06:18:38;;;;;;;4.95;2.33;;;;;;;23.83;53.49;101006.47;2079734;28;20068;-72
2023/04/25 06:20:01;;;;;;;4.65;2.20;;;;;;;23.84;49.99;101002.84;2071736;28;20115;-73
2023/04/25 06:21:24;;;;;;;5.45;2.10;;;;;;;23.80;47.67;101001.19;2068467;28;20046;-73
2023/04/25 06:22:47;;;;;;;3.30;2.17;;;;;;;23.85;47.69;101004.59;2068136;28;20233;-73
2023/04/25 06:24:10;;;;;;;4.80;1.80;;;;;;;23.90;44.61;101001.72;2065778;28;20038;-73
2023/04/25 06:25:33;;;;;;;6.38;2.20;;;;;;;23.89;44.42;101005.41;2066706;28;20076;-73
2023/04/25 06:26:54;;;;;;;5.50;2.38;;;;;;;23.98;44.35;101005.94;2069458;28;20099;-73
2023/04/25 06:28:17;;;;;;;4.53;2.03;;;;;;;24.12;44.37;101000.91;2068042;28;20133;-73
2023/04/25 06:29:40;;;;;;;7.13;2.10;;;;;;;24.25;43.68;101004.09;2062514;28;20050;-73
2023/04/25 06:31:05;;;;;;;4.57;2.00;;;;;;;24.33;42.15;101004.69;2072965;28;20081;-73
2023/04/25 06:32:29;;;;;;;3.97;2.30;;;;;;;24.35;41.97;101000.09;2062659;28;20054;-73
2023/04/25 06:33:54;;;;;;;5.18;1.80;;;;;;;24.47;42.57;100998.78;2071153;28;20042;-73
2023/04/25 06:35:17;;;;;;;5.25;2.10;;;;;;;24.62;41.95;100993.66;2068428;28;20058;-73
2023/04/25 06:36:41;;;;;;;4.75;1.75;;;;;;;24.78;41.33;100993.94;2068137;28;20472;-73
2023/04/25 06:38:05;;;;;;;7.70;2.13;;;;;;;24.84;41.09;100987.41;2068812;28;20068;-73